Time;durP1;ratioP1;P1;durP2;ratioP2;P2;SDS_P1;SDS_P2;PMS_P1;PMS_P2;Temp;Humidity;BMP_temperature;BMP_pressure;BME280_temperature;BME280_humidity;BME280_pressure;Samples;Min_cycle;Max_cycle;Signal;HPM_P1;HPM_P2
2021/03/12 00:01:00;;;;;;;6.47;1.85;;;5.70;99.90;;;;;;5050378;28;20032;-48
2021/03/12 00:03:32;;;;;;;7.45;1.45;;;5.70;99.90;;;;;;5050350;28;20402;-46
2021/03/12 00:06:00;;;;;;;6.22;1.83;;;5.70;99.90;;;;;;5049565;28;20424;-45
2021/03/12 00:08:30;;;;;;;3.13;1.30;;;5.60;99.90;;;;;;5050085;28;20047;-46
2021/03/12 00:10:56;;;;;;;6.38;1.63;;;5.60;99.90;;;;;;5050084;28;20155;-48
2021/03/12 00:13:23;;;;;;;7.78;2.33;;;5.50;99.90;;;;;;5050237;28;20083;-46
2021/03/12 00:15:50;;;;;;;2.75;1.33;;;5.50;99.90;;;;;;5048965;28;20013;-46
2021/03/12 00:18:20;;;;;;;5.72;2.97;;;5.40;99.90;;;;;;5048712;28;20497;-47
2021/03/12 00:20:47;;;;;;;4.43;1.77;;;5.30;99.90;;;;;;5048187;28;20084;-44
2021/03/12 00:23:13;;;;;;;6.40;1.73;;;5.30;99.90;;;;;;5048443;28;20036;-47
2021/03/12 00:25:46;;;;;;;2.85;1.55;;;5.30;99.90;;;;;;5047719;28;20459;-45
2021/03/12 00:28:13;;;;;;;2.15;1.50;;;5.30;99.90;;;;;;5049538;28;20021;-46
2021/03/12 00:30:40;;;;;;;2.58;1.40;;;5.30;99.90;;;;;;5049514;28;20509;-47
2021/03/12 00:33:07;;;;;;;3.90;1.70;;;5.30;99.90;;;;;;5050003;28;20021;-46
2021/03/12 00:35:34;;;;;;;6.35;1.83;;;5.30;99.90;;;;;;5048772;28;20045;-43
2021/03/12 00:38:00;;;;;;;7.75;1.70;;;5.40;99.90;;;;;;5049306;28;20122;-45
2021/03/12 00:40:28;;;;;;;5.47;1.98;;;5.40;99.90;;;;;;5048148;28;20029;-43
2021/03/12 00:42:54;;;;;;;5.95;1.38;;;5.40;99.90;;;;;;5048070;28;20060;-44
2021/03/12 00:45:21;;;;;;;6.25;1.45;;;5.40;99.90;;;;;;5048733;28;20467;-44
2021/03/12 00:47:47;;;;;;;3.75;1.30;;;5.50;99.90;;;;;;5049044;28;20033;-48
2021/03/12 00:50:20;;;;;;;3.55;1.15;;;5.50;99.90;;;;;;5049072;28;20112;-47
2021/03/12 00:52:46;;;;;;;3.72;1.45;;;5.30;99.90;;;;;;5049127;28;20036;-46
2021/03/12 00:55:11;;;;;;;6.90;1.65;;;5.30;99.90;;;;;;5048652;28;20021;-46
2021/03/12 00:57:37;;;;;;;4.00;2.00;;;5.30;99.90;;;;;;5047660;28;20604;-47
2021/03/12 01:00:05;;;;;;;8.45;2.05;;;5.30;99.90;;;;;;5049286;28;20025;-46
2021/03/12 01:02:30;;;;;;;5.55;1.50;;;5.20;99.90;;;;;;5049156;28;20021;-46
2021/03/12 01:04:55;;;;;;;3.28;1.40;;;5.20;99.90;;;;;;5048276;28;20032;-46
2021/03/12 01:07:21;;;;;;;4.93;1.10;;;5.20;99.90;;;;;;5048807;28;20525;-45
2021/03/12 01:09:46;;;;;;;2.60;1.00;;;5.20;99.90;;;;;;5048941;28;20029;-46
2021/03/12 01:12:12;;;;;;;1.30;0.88;;;5.20;99.90;;;;;;5049156;28;20033;-46
2021/03/12 01:14:37;;;;;;;4.22;1.20;;;5.10;99.90;;;;;;5048805;28;20082;-46
2021/03/12 01:17:03;;;;;;;3.60;1.17;;;5.10;99.90;;;;;;5048375;28;20029;-46
2021/03/12 01:19:28;;;;;;;3.45;0.98;;;5.10;99.90;;;;;;5048744;28;20044;-46
2021/03/12 01:21:54;;;;;;;6.05;1.33;;;5.00;99.90;;;;;;5048185;28;20032;-48
2021/03/12 01:24:19;;;;;;;1.70;0.95;;;5.00;99.90;;;;;;5048734;28;20065;-46
2021/03/12 01:26:45;;;;;;;4.80;1.38;;;5.00;99.90;;;;;;5047202;28;20036;-47
2021/03/12 01:29:10;;;;;;;7.13;1.00;;;4.90;99.90;;;;;;5048738;28;20147;-48
2021/03/12 01:31:36;;;;;;;6.80;1.70;;;4.90;99.90;;;;;;5048596;28;20021;-46
2021/03/12 01:34:01;;;;;;;4.15;1.10;;;5.00;99.90;;;;;;5048312;28;20036;-46
2021/03/12 01:36:28;;;;;;;1.30;1.05;;;5.00;99.90;;;;;;5047966;28;20029;-45
2021/03/12 01:38:53;;;;;;;3.10;1.30;;;4.90;99.90;;;;;;5048243;28;20095;-46
2021/03/12 01:41:20;;;;;;;2.38;1.13;;;5.00;99.90;;;;;;5048619;28;20116;-43
2021/03/12 01:43:45;;;;;;;6.55;1.13;;;4.90;99.90;;;;;;5047039;28;20024;-43
2021/03/12 01:46:10;;;;;;;3.15;1.13;;;4.90;99.90;;;;;;5047750;28;20044;-44
2021/03/12 01:48:36;;;;;;;9.05;1.35;;;4.90;99.90;;;;;;5046936;28;20072;-44
2021/03/12 01:51:05;;;;;;;3.63;1.50;;;4.90;99.90;;;;;;5048441;28;20021;-43
2021/03/12 01:53:32;;;;;;;8.32;1.15;;;4.90;99.90;;;;;;5047921;28;20020;-44
2021/03/12 01:55:58;;;;;;;8.68;1.42;;;4.90;99.90;;;;;;5047674;28;20025;-47
2021/03/12 01:58:24;;;;;;;5.78;1.05;;;4.90;99.90;;;;;;5048030;28;20163;-45
2021/03/12 02:00:50;;;;;;;6.10;1.30;;;4.90;99.90;;;;;;5048356;28;20029;-46
2021/03/12 02:03:19;;;;;;;2.42;1.02;;;4.90;99.90;;;;;;5047558;28;20031;-48
2021/03/12 02:05:45;;;;;;;8.50;1.30;;;4.90;99.90;;;;;;5046829;28;20033;-46
2021/03/12 02:08:10;;;;;;;7.22;2.28;;;4.90;99.90;;;;;;5057356;28;20047;-47
2021/03/12 02:10:37;;;;;;;8.32;1.35;;;5.00;99.90;;;;;;5067474;28;20155;-46
2021/03/12 02:13:29;;;;;;;6.97;1.58;;;5.00;99.90;;;;;;5067531;28;20609;-45
2021/03/12 02:16:09;;;;;;;2.90;1.15;;;5.00;99.90;;;;;;5048482;28;20025;-46
2021/03/12 02:18:59;;;;;;;7.13;1.92;;;5.00;99.90;;;;;;5046209;28;20028;-46
2021/03/12 02:21:34;;;;;;;5.63;2.63;;;5.00;99.90;;;;;;5047044;28;20036;-45
2021/03/12 02:24:21;;;;;;;10.13;2.50;;;5.00;99.90;;;;;;5047394;28;20272;-49
2021/03/12 02:26:47;;;;;;;7.40;2.72;;;5.10;99.90;;;;;;5047052;28;20021;-47
2021/03/12 02:29:15;;;;;;;10.68;3.20;;;5.10;99.90;;;;;;5046973;28;20028;-44
2021/03/12 02:31:42;;;;;;;6.30;2.70;;;5.20;99.90;;;;;;5047172;28;20025;-45
2021/03/12 02:34:10;;;;;;;9.27;2.97;;;5.20;99.90;;;;;;5047290;28;20483;-45
2021/03/12 02:36:38;;;;;;;9.65;3.00;;;5.20;99.90;;;;;;5057272;28;20067;-46
2021/03/12 02:39:08;;;;;;;8.80;3.28;;;5.30;99.90;;;;;;5059256;28;20629;-44
2021/03/12 02:41:35;;;;;;;9.82;3.70;;;5.30;99.90;;;;;;5060607;28;20413;-47
2021/03/12 02:44:02;;;;;;;7.43;3.17;;;5.30;99.90;;;;;;5060871;28;20474;-46
2021/03/12 02:46:28;;;;;;;7.35;3.75;;;5.30;99.90;;;;;;5061720;28;20362;-46
2021/03/12 02:48:55;;;;;;;14.07;4.35;;;5.30;99.90;;;;;;5061350;28;20419;-45
2021/03/12 02:51:22;;;;;;;13.45;4.28;;;5.30;99.90;;;;;;5058925;28;20033;-46
2021/03/12 02:53:49;;;;;;;13.60;4.68;;;5.40;99.90;;;;;;5060278;28;20025;-46
2021/03/12 02:56:18;;;;;;;10.70;4.00;;;5.40;99.90;;;;;;5061307;28;20039;-45
2021/03/12 02:58:46;;;;;;;11.60;4.35;;;5.40;99.90;;;;;;5060368;28;20108;-46
2021/03/12 03:01:14;;;;;;;15.82;4.72;;;5.40;99.90;;;;;;5060124;28;20033;-46
2021/03/12 03:03:40;;;;;;;11.30;4.50;;;5.40;99.90;;;;;;5060985;28;20032;-45
2021/03/12 03:06:08;;;;;;;14.60;5.47;;;5.50;99.90;;;;;;5059679;28;20032;-47
2021/03/12 03:08:36;;;;;;;10.32;4.95;;;5.40;99.90;;;;;;5061844;28;20074;-45
2021/03/12 03:11:05;;;;;;;13.38;5.47;;;5.50;99.90;;;;;;5060483;28;20363;-47
2021/03/12 03:13:33;;;;;;;20.58;5.70;;;5.50;99.90;;;;;;5059691;28;20032;-47
2021/03/12 03:16:01;;;;;;;14.68;5.90;;;5.50;99.90;;;;;;5059834;28;20441;-45
2021/03/12 03:18:30;;;;;;;16.45;5.82;;;5.50;99.90;;;;;;5059266;28;20445;-45
2021/03/12 03:20:57;;;;;;;15.35;7.05;;;5.50;99.90;;;;;;5057887;28;20021;-46
2021/03/12 03:23:23;;;;;;;14.20;7.53;;;5.40;99.90;;;;;;5058681;28;20471;-46
2021/03/12 03:25:50;;;;;;;18.27;8.25;;;5.40;99.90;;;;;;5058663;28;20029;-46
2021/03/12 03:28:15;;;;;;;17.70;8.05;;;5.40;99.90;;;;;;5060223;28;20080;-47
2021/03/12 03:30:41;;;;;;;17.00;7.45;;;5.40;99.90;;;;;;5053037;28;20037;-46
2021/03/12 03:33:07;;;;;;;18.70;7.60;;;5.40;99.90;;;;;;5050464;28;20029;-46
2021/03/12 03:35:33;;;;;;;17.40;7.22;;;5.40;99.90;;;;;;5049943;28;20067;-46
2021/03/12 03:37:59;;;;;;;20.58;7.25;;;5.30;99.90;;;;;;5049205;28;20033;-46
2021/03/12 03:40:25;;;;;;;19.45;8.27;;;5.30;99.90;;;;;;5050195;28;20032;-49
2021/03/12 03:42:51;;;;;;;23.80;7.88;;;5.30;99.90;;;;;;5050615;28;20025;-45
2021/03/12 03:45:19;;;;;;;21.50;8.15;;;5.30;99.90;;;;;;5049610;28;20051;-48
2021/03/12 03:47:45;;;;;;;14.07;7.55;;;5.30;99.90;;;;;;5050475;28;20209;-48
2021/03/12 03:50:14;;;;;;;17.58;7.88;;;5.30;99.90;;;;;;5049586;28;20032;-46
2021/03/12 03:52:40;;;;;;;22.20;8.35;;;5.30;99.90;;;;;;5050316;28;20032;-47
2021/03/12 03:55:08;;;;;;;13.32;7.25;;;5.20;99.90;;;;;;5048099;28;20021;-45
2021/03/12 03:57:34;;;;;;;13.82;7.85;;;5.20;99.90;;;;;;5049935;28;20066;-45
2021/03/12 04:00:03;;;;;;;17.08;8.82;;;5.20;99.90;;;;;;5050049;28;20393;-45
2021/03/12 04:02:29;;;;;;;18.65;7.72;;;5.20;99.90;;;;;;5050220;28;20112;-47
2021/03/12 04:04:55;;;;;;;20.95;9.07;;;5.10;99.90;;;;;;5049573;28;20148;-45
2021/03/12 04:07:21;;;;;;;19.60;9.52;;;5.10;99.90;;;;;;5050397;28;20029;-44
2021/03/12 04:09:48;;;;;;;21.02;9.63;;;5.10;99.90;;;;;;5049876;28;20095;-47
2021/03/12 04:12:15;;;;;;;22.92;9.30;;;5.10;99.90;;;;;;5048577;28;20028;-47
2021/03/12 04:14:42;;;;;;;23.27;9.75;;;5.00;99.90;;;;;;5050054;28;20071;-47
2021/03/12 04:17:09;;;;;;;25.90;10.90;;;5.00;99.90;;;;;;5049044;28;20077;-47
2021/03/12 04:19:35;;;;;;;19.60;9.73;;;5.00;99.90;;;;;;5048971;28;20061;-48
2021/03/12 04:22:01;;;;;;;21.42;9.15;;;5.00;99.90;;;;;;5048594;28;20091;-45
2021/03/12 04:24:27;;;;;;;28.42;9.70;;;5.10;99.90;;;;;;5047914;28;20032;-46
2021/03/12 04:26:54;;;;;;;22.88;8.88;;;5.10;99.90;;;;;;5048152;28;20029;-44
2021/03/12 04:29:21;;;;;;;22.83;9.48;;;5.10;99.90;;;;;;5048845;28;20087;-45
2021/03/12 04:31:47;;;;;;;16.95;8.23;;;5.10;99.90;;;;;;5047083;28;20021;-45
2021/03/12 04:34:13;;;;;;;22.83;9.07;;;5.10;99.90;;;;;;5048475;28;20364;-47
2021/03/12 04:36:39;;;;;;;14.75;7.57;;;5.20;99.90;;;;;;5047804;28;20087;-48
2021/03/12 04:39:05;;;;;;;10.93;6.25;;;5.20;99.90;;;;;;5048085;28;20100;-46
2021/03/12 04:41:33;;;;;;;17.70;7.05;;;5.10;99.90;;;;;;5048651;28;20025;-47
2021/03/12 04:43:58;;;;;;;19.63;7.45;;;5.00;99.90;;;;;;5048222;28;20367;-45
2021/03/12 04:46:24;;;;;;;21.55;8.25;;;4.90;99.90;;;;;;5047740;28;20075;-45
2021/03/12 04:48:50;;;;;;;15.43;7.70;;;4.90;99.90;;;;;;5049292;28;20104;-45
2021/03/12 04:51:18;;;;;;;18.60;8.73;;;4.90;99.90;;;;;;5047860;28;20021;-47
2021/03/12 04:53:43;;;;;;;15.68;6.10;;;4.90;99.90;;;;;;5049212;28;20390;-45
2021/03/12 04:56:09;;;;;;;8.88;4.75;;;4.90;99.90;;;;;;5048204;28;20021;-45
2021/03/12 04:58:38;;;;;;;7.80;4.30;;;4.80;99.90;;;;;;5049288;28;20275;-44
2021/03/12 05:01:09;;;;;;;6.68;4.10;;;4.70;99.90;;;;;;5054245;28;20051;-48
2021/03/12 05:03:37;;;;;;;12.07;4.18;;;4.60;99.90;;;;;;5058981;28;20124;-47
2021/03/12 05:06:05;;;;;;;10.68;4.80;;;4.50;99.90;;;;;;5060348;28;20029;-46
2021/03/12 05:08:31;;;;;;;9.15;4.53;;;4.30;99.90;;;;;;5058484;28;20351;-47
2021/03/12 05:11:05;;;;;;;9.65;4.50;;;4.30;99.90;;;;;;5067181;28;20028;-47
2021/03/12 05:13:30;;;;;;;13.32;5.82;;;4.20;99.90;;;;;;5067611;28;20024;-46
2021/03/12 05:15:56;;;;;;;8.40;5.22;;;4.10;99.90;;;;;;5049355;28;20090;-47
2021/03/12 05:18:22;;;;;;;12.45;6.68;;;4.20;99.90;;;;;;5048589;28;20041;-48
2021/03/12 05:20:49;;;;;;;11.93;7.40;;;4.20;99.90;;;;;;5048499;28;20028;-48
2021/03/12 05:23:18;;;;;;;22.20;9.38;;;4.30;99.90;;;;;;5046635;28;20078;-47
2021/03/12 05:25:44;;;;;;;24.77;9.52;;;4.40;99.90;;;;;;5047620;28;20123;-47
2021/03/12 05:28:09;;;;;;;20.77;8.35;;;4.50;99.90;;;;;;5048645;28;20136;-50
2021/03/12 05:30:35;;;;;;;18.48;10.05;;;4.50;99.90;;;;;;5048688;28;20055;-47
2021/03/12 05:33:01;;;;;;;25.83;9.85;;;4.50;99.90;;;;;;5048507;28;20021;-46
2021/03/12 05:35:27;;;;;;;20.15;9.50;;;4.50;99.90;;;;;;5047840;28;20039;-47
2021/03/12 05:37:52;;;;;;;21.60;10.77;;;4.50;99.90;;;;;;5047646;28;20025;-46
2021/03/12 05:40:19;;;;;;;27.10;11.27;;;4.50;99.90;;;;;;5056183;28;20039;-46
2021/03/12 05:42:45;;;;;;;27.35;11.57;;;4.40;99.90;;;;;;5054654;28;20035;-49
2021/03/12 05:45:11;;;;;;;39.58;13.90;;;4.50;99.90;;;;;;5056468;28;20047;-46
2021/03/12 05:47:37;;;;;;;27.67;13.43;;;4.50;99.90;;;;;;5057820;28;20487;-48
2021/03/12 05:50:04;;;;;;;37.88;13.48;;;4.60;99.90;;;;;;5055441;28;20031;-49
2021/03/12 05:52:32;;;;;;;31.85;13.15;;;4.60;99.90;;;;;;5068719;28;20198;-49
2021/03/12 05:54:59;;;;;;;27.20;12.48;;;4.60;99.90;;;;;;5064262;28;20048;-46
2021/03/12 05:57:25;;;;;;;32.88;13.80;;;4.70;99.90;;;;;;5067480;28;20032;-47
2021/03/12 05:59:51;;;;;;;27.95;11.93;;;4.70;99.90;;;;;;5086562;28;20097;-47
2021/03/12 06:02:17;;;;;;;29.60;11.95;;;4.70;99.90;;;;;;5048229;28;20029;-50
2021/03/12 06:04:46;;;;;;;28.13;11.75;;;4.70;99.90;;;;;;5048177;28;20033;-49
2021/03/12 06:07:16;;;;;;;24.45;10.90;;;4.70;99.90;;;;;;5047372;28;20389;-46
2021/03/12 06:09:45;;;;;;;24.40;10.80;;;4.70;99.90;;;;;;5054094;28;20028;-46
2021/03/12 06:12:12;;;;;;;20.20;11.48;;;4.80;99.90;;;;;;5064179;28;20013;-48
2021/03/12 06:14:52;;;;;;;29.55;11.98;;;4.80;99.90;;;;;;5071702;28;20118;-46
2021/03/12 06:17:31;;;;;;;26.25;11.52;;;4.80;99.90;;;;;;5085476;28;20666;-46
2021/03/12 06:19:57;;;;;;;26.05;11.05;;;4.90;99.90;;;;;;5071879;28;20434;-47
2021/03/12 06:22:23;;;;;;;26.00;12.35;;;4.80;99.90;;;;;;5071732;28;20482;-46
2021/03/12 06:24:49;;;;;;;20.02;10.32;;;4.90;99.90;;;;;;5065025;28;20033;-47
2021/03/12 06:27:24;;;;;;;25.85;11.73;;;4.90;99.90;;;;;;5057931;28;20096;-49
2021/03/12 06:29:57;;;;;;;19.63;9.32;;;4.80;99.90;;;;;;5065627;28;20032;-46
2021/03/12 06:32:40;;;;;;;18.08;8.60;;;4.80;99.90;;;;;;5091339;28;20012;-47
2021/03/12 06:35:07;;;;;;;16.75;10.10;;;4.80;99.90;;;;;;5071064;28;20023;-47
2021/03/12 06:37:35;;;;;;;18.02;9.07;;;4.90;99.90;;;;;;5071138;28;20029;-46
2021/03/12 06:40:27;;;;;;;24.35;8.52;;;4.90;99.90;;;;;;5079563;28;20139;-48
2021/03/12 06:43:15;;;;;;;16.73;8.60;;;4.90;99.90;;;;;;5064871;28;20056;-48
2021/03/12 06:45:41;;;;;;;16.63;8.65;;;4.90;99.90;;;;;;5050502;28;20032;-45
2021/03/12 06:48:33;;;;;;;18.50;7.88;;;4.90;99.90;;;;;;5050665;28;20031;-48
2021/03/12 06:51:10;;;;;;;20.95;8.63;;;5.00;99.90;;;;;;5050809;28;20018;-45
2021/03/12 06:53:40;;;;;;;15.70;8.13;;;5.00;99.90;;;;;;5050741;28;20355;-46
2021/03/12 06:56:06;;;;;;;17.58;7.40;;;5.10;99.90;;;;;;5049754;28;20031;-45
2021/03/12 06:58:33;;;;;;;20.85;9.15;;;5.00;99.90;;;;;;5050595;28;20339;-47
2021/03/12 07:00:59;;;;;;;19.73;8.90;;;5.10;99.90;;;;;;5048293;28;20624;-46
2021/03/12 07:03:33;;;;;;;15.45;8.30;;;5.00;99.90;;;;;;5050472;28;20482;-46
2021/03/12 07:06:17;;;;;;;13.85;6.88;;;5.10;99.90;;;;;;5049772;28;20029;-47
2021/03/12 07:08:45;;;;;;;16.48;7.40;;;5.10;99.90;;;;;;5050569;28;20039;-47
2021/03/12 07:11:37;;;;;;;17.42;7.63;;;5.10;99.90;;;;;;5050794;28;20037;-46
2021/03/12 07:14:03;;;;;;;16.60;6.88;;;5.20;99.90;;;;;;5046676;28;20309;-49
2021/03/12 07:16:29;;;;;;;15.45;6.40;;;5.10;99.90;;;;;;5049862;28;20029;-45
2021/03/12 07:18:56;;;;;;;16.92;7.10;;;5.10;99.90;;;;;;5049109;28;20028;-47
2021/03/12 07:21:28;;;;;;;14.23;7.20;;;5.20;99.90;;;;;;5055258;28;20028;-46
2021/03/12 07:23:58;;;;;;;16.42;7.22;;;5.20;99.90;;;;;;5060096;28;20028;-45
2021/03/12 07:26:33;;;;;;;22.55;7.47;;;5.20;99.90;;;;;;5054624;28;20511;-45
2021/03/12 07:29:01;;;;;;;14.38;6.32;;;5.20;99.90;;;;;;5061496;28;20142;-46
2021/03/12 07:31:37;;;;;;;11.95;5.72;;;5.30;99.90;;;;;;5055666;28;20029;-45
2021/03/12 07:34:25;;;;;;;11.65;6.03;;;5.40;99.90;;;;;;5049652;28;20024;-47
2021/03/12 07:36:55;;;;;;;12.20;5.35;;;5.40;99.90;;;;;;5048548;28;20555;-46
2021/03/12 07:39:24;;;;;;;12.65;6.10;;;5.50;99.90;;;;;;5048220;28;20478;-45
2021/03/12 07:41:51;;;;;;;15.32;6.20;;;5.50;99.90;;;;;;5049106;28;20482;-45
2021/03/12 07:44:18;;;;;;;15.30;6.13;;;5.50;99.90;;;;;;5049484;28;20111;-49
2021/03/12 07:46:51;;;;;;;15.63;7.15;;;5.60;99.90;;;;;;5049091;28;20028;-49
2021/03/12 07:49:30;;;;;;;17.00;5.32;;;5.80;99.90;;;;;;5049357;28;20032;-49
2021/03/12 07:52:00;;;;;;;13.90;6.05;;;5.90;99.90;;;;;;5048370;28;20025;-46
2021/03/12 07:54:39;;;;;;;18.35;6.68;;;6.00;99.90;;;;;;5049528;28;20025;-46
2021/03/12 07:57:05;;;;;;;13.50;6.43;;;6.10;99.90;;;;;;5048063;28;20033;-45
2021/03/12 07:59:46;;;;;;;14.43;6.32;;;6.10;99.90;;;;;;5050726;28;20025;-49
2021/03/12 08:02:13;;;;;;;11.95;5.57;;;6.00;99.90;;;;;;5069383;28;20082;-45
2021/03/12 08:04:39;;;;;;;11.73;6.07;;;6.10;99.90;;;;;;5069327;28;20024;-46
2021/03/12 08:07:17;;;;;;;16.58;6.35;;;6.10;99.90;;;;;;5066433;28;20027;-48
2021/03/12 08:09:44;;;;;;;11.65;6.68;;;6.10;99.90;;;;;;5049047;28;20021;-46
2021/03/12 08:12:32;;;;;;;15.00;7.30;;;6.20;99.90;;;;;;5048794;28;20387;-45
2021/03/12 08:15:30;;;;;;;19.10;7.85;;;6.20;99.90;;;;;;5048604;28;20025;-45
2021/03/12 08:17:58;;;;;;;18.35;7.47;;;6.20;99.90;;;;;;5049418;28;20021;-48
2021/03/12 08:20:29;;;;;;;15.95;6.20;;;6.40;99.90;;;;;;5049384;28;20056;-46
2021/03/12 08:22:58;;;;;;;15.50;6.90;;;6.50;99.90;;;;;;5049313;28;20024;-47
2021/03/12 08:25:35;;;;;;;12.90;7.10;;;6.60;99.90;;;;;;5048364;28;20029;-47
2021/03/12 08:28:21;;;;;;;17.40;5.90;;;6.70;99.90;;;;;;5048011;28;20063;-48
2021/03/12 08:30:49;;;;;;;12.68;5.45;;;6.90;99.90;;;;;;5055671;28;20033;-49
2021/03/12 08:33:21;;;;;;;13.73;6.43;;;6.90;99.90;;;;;;5066604;28;20082;-45
2021/03/12 08:35:48;;;;;;;18.90;7.35;;;7.10;99.90;;;;;;5067778;28;20112;-46
2021/03/12 08:38:23;;;;;;;20.80;6.57;;;7.30;99.90;;;;;;5059921;28;20492;-45
2021/03/12 08:41:04;;;;;;;11.45;5.95;;;7.20;99.90;;;;;;5054275;28;20436;-45
2021/03/12 08:43:31;;;;;;;15.38;6.05;;;7.40;99.90;;;;;;5053543;28;21087;-44
2021/03/12 08:45:59;;;;;;;13.48;6.05;;;7.40;99.90;;;;;;5050787;28;20401;-44
2021/03/12 08:48:27;;;;;;;12.85;6.15;;;7.60;99.90;;;;;;5048905;28;20040;-45
2021/03/12 08:50:57;;;;;;;12.05;5.95;;;8.10;99.90;;;;;;5048953;28;20056;-45
2021/03/12 08:53:28;;;;;;;14.63;7.03;;;8.50;99.90;;;;;;5048629;28;20013;-44
2021/03/12 08:55:56;;;;;;;11.38;5.22;;;8.70;99.90;;;;;;5055289;28;20028;-45
2021/03/12 08:58:27;;;;;;;10.73;5.60;;;9.00;99.90;;;;;;5056694;28;20048;-45
2021/03/12 09:00:54;;;;;;;10.50;5.20;;;9.40;99.90;;;;;;5056168;28;20029;-45
2021/03/12 09:03:21;;;;;;;10.63;6.10;;;9.60;99.90;;;;;;5048377;28;20386;-46
2021/03/12 09:05:52;;;;;;;11.68;5.88;;;9.60;99.90;;;;;;5047683;28;20459;-45
2021/03/12 09:08:24;;;;;;;11.50;4.95;;;9.60;99.90;;;;;;5048684;28;20410;-46
2021/03/12 09:10:51;;;;;;;13.80;5.78;;;9.30;99.90;;;;;;5048476;28;20504;-45
2021/03/12 09:13:19;;;;;;;10.38;6.15;;;9.60;99.90;;;;;;5056833;28;20491;-46
2021/03/12 09:15:45;;;;;;;11.05;5.75;;;9.50;99.90;;;;;;5057575;28;20029;-47
2021/03/12 09:18:16;;;;;;;12.93;5.63;;;10.00;99.90;;;;;;5057681;28;20020;-45
2021/03/12 09:20:43;;;;;;;11.38;6.30;;;10.20;99.90;;;;;;5068194;28;20071;-47
2021/03/12 09:23:09;;;;;;;16.77;5.43;;;9.90;99.90;;;;;;5068070;28;20025;-46
2021/03/12 09:25:34;;;;;;;13.65;5.20;;;10.30;99.90;;;;;;5056594;28;20104;-48
2021/03/12 09:28:04;;;;;;;13.18;5.28;;;10.30;99.90;;;;;;5054059;28;20100;-43
2021/03/12 09:30:33;;;;;;;14.45;5.65;;;10.20;99.80;;;;;;5058554;28;20067;-46
2021/03/12 09:32:59;;;;;;;10.48;4.78;;;10.90;96.30;;;;;;5063399;28;20064;-45
2021/03/12 09:35:24;;;;;;;12.27;4.55;;;11.60;94.90;;;;;;5048591;28;20021;-46
2021/03/12 09:37:51;;;;;;;10.50;4.35;;;12.30;92.80;;;;;;5050540;28;20055;-46
2021/03/12 09:40:32;;;;;;;8.77;3.83;;;13.30;86.00;;;;;;5052576;28;20020;-47
2021/03/12 09:42:58;;;;;;;12.00;4.97;;;13.70;74.10;;;;;;5059276;28;20100;-46
2021/03/12 09:45:24;;;;;;;8.63;5.25;;;14.40;69.80;;;;;;5057696;28;20104;-47
2021/03/12 09:47:51;;;;;;;21.10;10.98;;;15.00;66.50;;;;;;5058270;28;20028;-48
2021/03/12 09:50:18;;;;;;;6.50;3.30;;;15.30;69.40;;;;;;5057712;28;20013;-47
2021/03/12 09:52:45;;;;;;;10.30;3.70;;;14.50;66.70;;;;;;5058731;28;20017;-48
2021/03/12 09:55:11;;;;;;;10.73;3.45;;;13.70;65.00;;;;;;5058453;28;20474;-48
2021/03/12 09:57:37;;;;;;;12.18;3.97;;;13.50;67.20;;;;;;5059098;28;20040;-48
2021/03/12 10:00:07;;;;;;;12.50;3.75;;;12.80;66.80;;;;;;5058197;28;20418;-46
2021/03/12 10:02:33;;;;;;;8.88;3.47;;;13.60;69.40;;;;;;5059816;28;20036;-48
2021/03/12 10:05:04;;;;;;;9.55;3.78;;;14.40;66.40;;;;;;5057034;28;20036;-45
2021/03/12 10:07:38;;;;;;;7.75;3.35;;;15.70;62.40;;;;;;5058679;28;20108;-49
2021/03/12 10:10:12;;;;;;;7.78;2.92;;;16.80;55.50;;;;;;5057074;28;20044;-48
2021/03/12 10:12:41;;;;;;;6.68;3.60;;;16.90;52.90;;;;;;5058987;28;20481;-46
2021/03/12 10:15:15;;;;;;;10.98;3.40;;;16.30;52.90;;;;;;5057081;28;20051;-46
2021/03/12 10:17:42;;;;;;;6.20;3.47;;;14.80;56.50;;;;;;5056890;28;20017;-50
2021/03/12 10:20:18;;;;;;;8.63;3.85;;;15.20;60.70;;;;;;5057345;28;20023;-49
2021/03/12 10:22:51;;;;;;;8.73;4.15;;;16.80;57.10;;;;;;5058650;28;20062;-46
2021/03/12 10:25:22;;;;;;;12.63;4.28;;;18.10;51.70;;;;;;5046637;28;20017;-46
2021/03/12 10:27:49;;;;;;;10.73;3.97;;;18.10;50.10;;;;;;5055037;28;20021;-46
2021/03/12 10:30:23;;;;;;;8.15;4.28;;;18.10;48.30;;;;;;5057809;28;20017;-48
2021/03/12 10:32:54;;;;;;;7.30;3.63;;;16.40;52.90;;;;;;5058425;28;20025;-46
2021/03/12 10:35:21;;;;;;;;;;;15.80;53.70;;;;;;5056923;28;20044;-46
2021/03/12 10:37:48;;;;;;;5.68;3.58;;;15.90;51.80;;;;;;5056944;28;19915;-48
2021/03/12 10:40:14;;;;;;;7.63;3.47;;;15.90;53.90;;;;;;5066260;28;20029;-45
2021/03/12 10:42:40;;;;;;;9.35;3.63;;;16.60;50.80;;;;;;5058121;28;20013;-45
2021/03/12 10:45:08;;;;;;;5.50;3.10;;;15.60;51.90;;;;;;5064581;28;20524;-46
2021/03/12 10:47:34;;;;;;;18.50;4.20;;;16.40;52.20;;;;;;5060812;28;20040;-45
2021/03/12 10:50:17;;;;;;;7.68;3.13;;;15.30;51.80;;;;;;5057681;28;20032;-49
2021/03/12 10:52:43;;;;;;;8.07;2.72;;;16.00;52.60;;;;;;5056848;28;20053;-46
2021/03/12 10:55:10;;;;;;;8.60;3.00;;;17.20;51.50;;;;;;5056250;28;20060;-46
2021/03/12 10:57:59;;;;;;;8.70;3.13;;;17.50;49.20;;;;;;5058450;28;20036;-46
2021/03/12 11:00:24;;;;;;;6.18;3.28;;;17.40;48.80;;;;;;5060415;28;20017;-47
2021/03/12 11:02:50;;;;;;;5.93;2.83;;;18.10;46.80;;;;;;5060219;28;20024;-47
2021/03/12 11:05:17;;;;;;;10.57;3.20;;;17.50;46.30;;;;;;5061399;28;20547;-47
2021/03/12 11:07:44;;;;;;;4.43;2.53;;;17.70;46.50;;;;;;5059536;28;20082;-48
2021/03/12 11:10:11;;;;;;;9.52;2.92;;;17.00;49.30;;;;;;5061750;28;20425;-46
2021/03/12 11:12:44;;;;;;;9.32;3.20;;;17.10;48.30;;;;;;5059653;28;20070;-48
2021/03/12 11:15:11;;;;;;;6.05;2.63;;;17.90;49.60;;;;;;5059559;28;20482;-46
2021/03/12 11:17:37;;;;;;;8.32;2.63;;;18.70;47.50;;;;;;5061966;28;20056;-45
2021/03/12 11:20:06;;;;;;;4.65;2.35;;;18.70;44.90;;;;;;5059287;28;20044;-46
2021/03/12 11:22:33;;;;;;;4.75;2.60;;;18.80;45.30;;;;;;5059292;28;20428;-47
2021/03/12 11:24:59;;;;;;;6.53;2.75;;;18.70;45.70;;;;;;5074508;28;20498;-46
2021/03/12 11:27:26;;;;;;;9.68;2.90;;;19.30;43.10;;;;;;5060436;28;20035;-48
2021/03/12 11:29:52;;;;;;;8.80;3.25;;;17.70;47.10;;;;;;5061509;28;20487;-48
2021/03/12 11:32:17;;;;;;;6.88;3.22;;;18.00;48.40;;;;;;5059223;28;20075;-45
2021/03/12 11:34:43;;;;;;;7.20;2.85;;;18.10;45.50;;;;;;5059412;28;20517;-47
2021/03/12 11:37:08;;;;;;;10.13;2.83;;;18.20;46.30;;;;;;5059963;28;20056;-46
2021/03/12 11:39:34;;;;;;;9.63;3.08;;;17.70;44.90;;;;;;5058038;28;20024;-45
2021/03/12 11:42:00;;;;;;;8.15;2.55;;;16.60;47.90;;;;;;5059264;28;20028;-46
2021/03/12 11:44:26;;;;;;;9.45;2.22;;;16.90;46.20;;;;;;5059986;28;20024;-47
2021/03/12 11:46:51;;;;;;;7.75;2.38;;;17.10;45.80;;;;;;5062115;28;20505;-46
2021/03/12 11:49:17;;;;;;;9.60;2.67;;;18.10;44.30;;;;;;5066676;28;20021;-47
2021/03/12 11:51:43;;;;;;;5.85;2.13;;;18.50;44.50;;;;;;5066931;28;20474;-47
2021/03/12 11:54:09;;;;;;;5.60;2.13;;;19.00;42.20;;;;;;5059632;28;20115;-46
2021/03/12 11:56:35;;;;;;;5.85;2.28;;;18.20;43.70;;;;;;5060006;28;20025;-47
2021/03/12 11:59:00;;;;;;;6.05;2.20;;;18.10;42.90;;;;;;5066119;28;20059;-44
2021/03/12 12:01:26;;;;;;;5.82;2.55;;;17.70;44.80;;;;;;5070519;28;20112;-45
2021/03/12 12:03:51;;;;;;;8.55;2.65;;;17.10;46.40;;;;;;5070153;28;20024;-45
2021/03/12 12:06:17;;;;;;;6.47;2.45;;;15.70;48.00;;;;;;5069504;28;20601;-45
2021/03/12 12:08:43;;;;;;;6.93;2.92;;;15.50;48.90;;;;;;5069837;28;20032;-45
2021/03/12 12:11:08;;;;;;;10.55;3.10;;;14.50;50.20;;;;;;5069662;28;20037;-44
2021/03/12 12:13:34;;;;;;;9.50;2.70;;;13.30;50.50;;;;;;5070039;28;20477;-46
2021/03/12 12:15:59;;;;;;;8.23;3.33;;;13.40;51.40;;;;;;5069471;28;20023;-45
2021/03/12 12:18:25;;;;;;;8.73;2.85;;;14.50;48.60;;;;;;5067749;28;20397;-46
2021/03/12 12:20:50;;;;;;;6.45;2.45;;;15.40;52.50;;;;;;5050186;28;20096;-45
2021/03/12 12:23:16;;;;;;;6.95;2.40;;;15.50;48.70;;;;;;5048464;28;20017;-46
2021/03/12 12:25:41;;;;;;;6.82;2.88;;;15.00;49.60;;;;;;5056249;28;20032;-46
2021/03/12 12:28:09;;;;;;;9.07;2.58;;;14.80;48.70;;;;;;5049933;28;20024;-47
2021/03/12 12:30:34;;;;;;;6.88;2.67;;;14.20;49.70;;;;;;5049942;28;20171;-45
2021/03/12 12:33:00;;;;;;;7.22;2.65;;;13.40;51.30;;;;;;5049836;28;20107;-48
2021/03/12 12:35:27;;;;;;;7.65;2.20;;;12.80;52.10;;;;;;5059017;28;20478;-47
2021/03/12 12:37:53;;;;;;;9.38;2.60;;;12.80;51.90;;;;;;5055244;28;20021;-48
2021/03/12 12:40:21;;;;;;;8.73;2.75;;;12.30;53.40;;;;;;5048803;28;20107;-46
2021/03/12 12:42:47;;;;;;;5.88;2.25;;;12.50;54.70;;;;;;5060887;28;20542;-47
2021/03/12 12:45:14;;;;;;;9.02;1.92;;;12.80;56.40;;;;;;5063708;28;20440;-44
2021/03/12 12:47:40;;;;;;;5.97;1.95;;;13.60;54.90;;;;;;5065850;28;20496;-45
2021/03/12 12:50:07;;;;;;;9.82;2.40;;;14.00;51.90;;;;;;5069164;28;20044;-46
2021/03/12 12:52:33;;;;;;;7.60;2.47;;;14.10;51.60;;;;;;5067047;28;20493;-45
2021/03/12 12:54:59;;;;;;;7.93;2.03;;;14.30;51.30;;;;;;5057596;28;20017;-44